sensor_id;sensor_type;location;lat;lon;timestamp;temperature;humidity
7842;DHT22;3966;51.052;13.820;2023-02-26T00:00:16;0.20;99.90
7842;DHT22;3966;51.052;13.820;2023-02-26T00:02:45;0.10;99.90
7842;DHT22;3966;51.052;13.820;2023-02-26T00:05:13;0.00;99.90
7842;DHT22;3966;51.052;13.820;2023-02-26T00:07:39;0.10;99.90
7842;DHT22;3966;51.052;13.820;2023-02-26T00:10:08;0.10;99.90
7842;DHT22;3966;51.052;13.820;2023-02-26T00:12:34;0.20;99.90
7842;DHT22;3966;51.052;13.820;2023-02-26T00:15:01;0.20;99.90
7842;DHT22;3966;51.052;13.820;2023-02-26T00:19:59;0.10;99.90
7842;DHT22;3966;51.052;13.820;2023-02-26T00:22:25;0.10;99.90
7842;DHT22;3966;51.052;13.820;2023-02-26T00:24:51;0.00;99.90
7842;DHT22;3966;51.052;13.820;2023-02-26T00:27:17;0.00;99.90
7842;DHT22;3966;51.052;13.820;2023-02-26T00:29:43;0.00;99.90
7842;DHT22;3966;51.052;13.820;2023-02-26T00:32:10;0.10;99.90
7842;DHT22;3966;51.052;13.820;2023-02-26T00:34:36;0.10;99.90
7842;DHT22;3966;51.052;13.820;2023-02-26T00:39:55;0.20;99.90
7842;DHT22;3966;51.052;13.820;2023-02-26T00:42:24;0.20;99.90
7842;DHT22;3966;51.052;13.820;2023-02-26T00:44:50;0.20;99.90
7842;DHT22;3966;51.052;13.820;2023-02-26T00:47:27;0.20;99.90
7842;DHT22;3966;51.052;13.820;2023-02-26T00:50:15;0.20;99.90
7842;DHT22;3966;51.052;13.820;2023-02-26T00:55:14;0.10;99.90
7842;DHT22;3966;51.052;13.820;2023-02-26T00:57:40;0.10;99.90
7842;DHT22;3966;51.052;13.820;2023-02-26T01:00:06;0.10;99.90
7842;DHT22;3966;51.052;13.820;2023-02-26T01:02:36;0.10;99.90
7842;DHT22;3966;51.052;13.820;2023-02-26T01:05:02;0.10;99.90
7842;DHT22;3966;51.052;13.820;2023-02-26T01:07:32;0.10;99.90
7842;DHT22;3966;51.052;13.820;2023-02-26T01:10:00;0.10;99.90
7842;DHT22;3966;51.052;13.820;2023-02-26T01:12:25;0.00;99.90
7842;DHT22;3966;51.052;13.820;2023-02-26T01:14:51;0.10;99.90
7842;DHT22;3966;51.052;13.820;2023-02-26T01:17:24;0.00;99.90
7842;DHT22;3966;51.052;13.820;2023-02-26T01:20:07;0.00;99.90
7842;DHT22;3966;51.052;13.820;2023-02-26T01:25:06;0.10;99.90
7842;DHT22;3966;51.052;13.820;2023-02-26T01:27:33;0.10;99.90
7842;DHT22;3966;51.052;13.820;2023-02-26T01:29:59;0.10;99.90
7842;DHT22;3966;51.052;13.820;2023-02-26T01:35:44;0.20;99.90
7842;DHT22;3966;51.052;13.820;2023-02-26T01:49:27;0.00;99.90
7842;DHT22;3966;51.052;13.820;2023-02-26T01:51:54;0.00;99.90
7842;DHT22;3966;51.052;13.820;2023-02-26T01:54:32;0.00;99.90
7842;DHT22;3966;51.052;13.820;2023-02-26T01:59:37;0.00;99.90
7842;DHT22;3966;51.052;13.820;2023-02-26T02:02:06;0.10;99.90
7842;DHT22;3966;51.052;13.820;2023-02-26T02:04:33;0.00;99.90
7842;DHT22;3966;51.052;13.820;2023-02-26T02:06:59;0.00;99.90
7842;DHT22;3966;51.052;13.820;2023-02-26T02:09:25;0.00;99.90
7842;DHT22;3966;51.052;13.820;2023-02-26T02:19:46;0.00;99.90
7842;DHT22;3966;51.052;13.820;2023-02-26T02:28:25;0.10;99.90
7842;DHT22;3966;51.052;13.820;2023-02-26T02:31:10;0.10;99.90
7842;DHT22;3966;51.052;13.820;2023-02-26T02:33:46;0.10;99.90
7842;DHT22;3966;51.052;13.820;2023-02-26T02:39:13;0.10;99.90
7842;DHT22;3966;51.052;13.820;2023-02-26T02:41:58;0.10;99.90
7842;DHT22;3966;51.052;13.820;2023-02-26T02:44:27;0.10;99.90
7842;DHT22;3966;51.052;13.820;2023-02-26T02:46:55;0.10;99.90
7842;DHT22;3966;51.052;13.820;2023-02-26T02:49:33;0.00;99.90
7842;DHT22;3966;51.052;13.820;2023-02-26T02:52:09;0.10;99.90
7842;DHT22;3966;51.052;13.820;2023-02-26T02:58:02;0.10;99.90
7842;DHT22;3966;51.052;13.820;2023-02-26T03:00:31;0.10;99.90
7842;DHT22;3966;51.052;13.820;2023-02-26T03:05:32;0.10;99.90
7842;DHT22;3966;51.052;13.820;2023-02-26T03:08:02;0.10;99.90
7842;DHT22;3966;51.052;13.820;2023-02-26T03:10:29;0.10;99.90
7842;DHT22;3966;51.052;13.820;2023-02-26T03:12:55;0.10;99.90
7842;DHT22;3966;51.052;13.820;2023-02-26T03:15:37;0.10;99.90
7842;DHT22;3966;51.052;13.820;2023-02-26T03:23:42;0.20;99.90
7842;DHT22;3966;51.052;13.820;2023-02-26T03:26:14;0.20;99.90
7842;DHT22;3966;51.052;13.820;2023-02-26T03:29:08;0.20;99.90
7842;DHT22;3966;51.052;13.820;2023-02-26T03:31:51;0.20;99.90
7842;DHT22;3966;51.052;13.820;2023-02-26T03:37:01;0.30;99.90
7842;DHT22;3966;51.052;13.820;2023-02-26T03:39:35;0.20;99.90
7842;DHT22;3966;51.052;13.820;2023-02-26T03:44:51;0.20;99.90
7842;DHT22;3966;51.052;13.820;2023-02-26T03:47:17;0.30;99.90
7842;DHT22;3966;51.052;13.820;2023-02-26T03:50:04;0.20;99.90
7842;DHT22;3966;51.052;13.820;2023-02-26T03:52:33;0.20;99.90
7842;DHT22;3966;51.052;13.820;2023-02-26T03:55:06;0.20;99.90
7842;DHT22;3966;51.052;13.820;2023-02-26T03:57:34;0.20;99.90
7842;DHT22;3966;51.052;13.820;2023-02-26T03:59:59;0.20;99.90
7842;DHT22;3966;51.052;13.820;2023-02-26T04:02:59;0.20;99.90
7842;DHT22;3966;51.052;13.820;2023-02-26T04:05:31;0.20;99.90
7842;DHT22;3966;51.052;13.820;2023-02-26T04:07:59;0.10;99.90
7842;DHT22;3966;51.052;13.820;2023-02-26T04:10:38;0.10;99.90
7842;DHT22;3966;51.052;13.820;2023-02-26T04:13:04;0.10;99.90
7842;DHT22;3966;51.052;13.820;2023-02-26T04:15:30;0.10;99.90
7842;DHT22;3966;51.052;13.820;2023-02-26T04:17:56;0.10;99.90
7842;DHT22;3966;51.052;13.820;2023-02-26T04:20:21;0.10;99.90
7842;DHT22;3966;51.052;13.820;2023-02-26T04:22:47;0.10;99.90
7842;DHT22;3966;51.052;13.820;2023-02-26T04:25:12;0.20;99.90
7842;DHT22;3966;51.052;13.820;2023-02-26T04:27:38;0.20;99.90
7842;DHT22;3966;51.052;13.820;2023-02-26T04:30:04;0.10;99.90
7842;DHT22;3966;51.052;13.820;2023-02-26T04:32:30;0.20;99.90
7842;DHT22;3966;51.052;13.820;2023-02-26T04:34:56;0.20;99.90
7842;DHT22;3966;51.052;13.820;2023-02-26T04:37:21;0.20;99.90
7842;DHT22;3966;51.052;13.820;2023-02-26T04:39:47;0.20;99.90
7842;DHT22;3966;51.052;13.820;2023-02-26T04:42:12;0.20;99.90
7842;DHT22;3966;51.052;13.820;2023-02-26T04:44:38;0.20;99.90
7842;DHT22;3966;51.052;13.820;2023-02-26T04:47:04;0.10;99.90
7842;DHT22;3966;51.052;13.820;2023-02-26T04:49:29;0.10;99.90
7842;DHT22;3966;51.052;13.820;2023-02-26T04:51:55;0.10;99.90
7842;DHT22;3966;51.052;13.820;2023-02-26T04:54:21;0.10;99.90
7842;DHT22;3966;51.052;13.820;2023-02-26T04:56:47;0.20;99.90
7842;DHT22;3966;51.052;13.820;2023-02-26T04:59:12;0.10;99.90
7842;DHT22;3966;51.052;13.820;2023-02-26T05:01:38;0.20;99.90
7842;DHT22;3966;51.052;13.820;2023-02-26T05:04:04;0.20;99.90
7842;DHT22;3966;51.052;13.820;2023-02-26T05:06:29;0.10;99.90
7842;DHT22;3966;51.052;13.820;2023-02-26T05:08:55;0.20;99.90
7842;DHT22;3966;51.052;13.820;2023-02-26T05:11:21;0.20;99.90
7842;DHT22;3966;51.052;13.820;2023-02-26T05:13:46;0.20;99.90
7842;DHT22;3966;51.052;13.820;2023-02-26T05:16:12;0.20;99.90
7842;DHT22;3966;51.052;13.820;2023-02-26T05:18:37;0.20;99.90
7842;DHT22;3966;51.052;13.820;2023-02-26T05:21:03;0.30;99.90
7842;DHT22;3966;51.052;13.820;2023-02-26T05:23:30;0.30;99.90
7842;DHT22;3966;51.052;13.820;2023-02-26T05:25:56;0.20;99.90
7842;DHT22;3966;51.052;13.820;2023-02-26T05:28:25;0.20;99.90
7842;DHT22;3966;51.052;13.820;2023-02-26T05:30:51;0.10;99.90
7842;DHT22;3966;51.052;13.820;2023-02-26T05:33:17;0.10;99.90
7842;DHT22;3966;51.052;13.820;2023-02-26T05:35:44;0.20;99.90
7842;DHT22;3966;51.052;13.820;2023-02-26T05:38:10;0.20;99.90
7842;DHT22;3966;51.052;13.820;2023-02-26T05:40:35;0.20;99.90
7842;DHT22;3966;51.052;13.820;2023-02-26T05:43:01;0.20;99.90
7842;DHT22;3966;51.052;13.820;2023-02-26T05:45:27;0.20;99.90
7842;DHT22;3966;51.052;13.820;2023-02-26T05:47:52;0.20;99.90
7842;DHT22;3966;51.052;13.820;2023-02-26T05:50:18;0.20;99.90
7842;DHT22;3966;51.052;13.820;2023-02-26T05:52:44;0.20;99.90
7842;DHT22;3966;51.052;13.820;2023-02-26T05:55:09;0.20;99.90
7842;DHT22;3966;51.052;13.820;2023-02-26T05:57:35;0.20;99.90
7842;DHT22;3966;51.052;13.820;2023-02-26T06:00:01;0.20;99.90
7842;DHT22;3966;51.052;13.820;2023-02-26T06:02:26;0.20;99.90
7842;DHT22;3966;51.052;13.820;2023-02-26T06:04:52;0.10;99.90
7842;DHT22;3966;51.052;13.820;2023-02-26T06:07:18;0.10;99.90
7842;DHT22;3966;51.052;13.820;2023-02-26T06:09:43;0.10;99.90
7842;DHT22;3966;51.052;13.820;2023-02-26T06:12:09;0.10;99.90
7842;DHT22;3966;51.052;13.820;2023-02-26T06:14:35;0.10;99.90
7842;DHT22;3966;51.052;13.820;2023-02-26T06:17:02;0.10;99.90
7842;DHT22;3966;51.052;13.820;2023-02-26T06:19:27;0.10;99.90
7842;DHT22;3966;51.052;13.820;2023-02-26T06:21:53;0.10;99.90
7842;DHT22;3966;51.052;13.820;2023-02-26T06:24:19;0.10;99.90
7842;DHT22;3966;51.052;13.820;2023-02-26T06:26:44;0.20;99.90
7842;DHT22;3966;51.052;13.820;2023-02-26T06:29:10;0.20;99.90
7842;DHT22;3966;51.052;13.820;2023-02-26T06:31:36;0.20;99.90
7842;DHT22;3966;51.052;13.820;2023-02-26T06:34:02;0.30;99.90
7842;DHT22;3966;51.052;13.820;2023-02-26T06:36:28;0.20;99.90
7842;DHT22;3966;51.052;13.820;2023-02-26T06:38:53;0.20;99.90
7842;DHT22;3966;51.052;13.820;2023-02-26T06:41:19;0.20;99.90
7842;DHT22;3966;51.052;13.820;2023-02-26T06:43:45;0.20;99.90
7842;DHT22;3966;51.052;13.820;2023-02-26T06:46:10;0.20;99.90
7842;DHT22;3966;51.052;13.820;2023-02-26T06:48:36;0.10;99.90
7842;DHT22;3966;51.052;13.820;2023-02-26T06:51:02;0.20;99.90
7842;DHT22;3966;51.052;13.820;2023-02-26T06:53:27;0.10;99.90
7842;DHT22;3966;51.052;13.820;2023-02-26T06:55:53;0.10;99.90
7842;DHT22;3966;51.052;13.820;2023-02-26T06:58:19;0.20;99.90
7842;DHT22;3966;51.052;13.820;2023-02-26T07:00:45;0.20;99.90
7842;DHT22;3966;51.052;13.820;2023-02-26T07:03:12;0.20;99.90
7842;DHT22;3966;51.052;13.820;2023-02-26T07:05:38;0.20;99.90
7842;DHT22;3966;51.052;13.820;2023-02-26T07:08:04;0.20;99.90
7842;DHT22;3966;51.052;13.820;2023-02-26T07:10:32;0.30;99.90
7842;DHT22;3966;51.052;13.820;2023-02-26T07:12:58;0.30;99.90
7842;DHT22;3966;51.052;13.820;2023-02-26T07:15:23;0.30;99.90
7842;DHT22;3966;51.052;13.820;2023-02-26T07:17:49;0.20;99.90
7842;DHT22;3966;51.052;13.820;2023-02-26T07:20:15;0.20;99.90
7842;DHT22;3966;51.052;13.820;2023-02-26T07:22:42;0.30;99.90
7842;DHT22;3966;51.052;13.820;2023-02-26T07:25:09;0.30;99.90
7842;DHT22;3966;51.052;13.820;2023-02-26T07:27:35;0.40;99.90
7842;DHT22;3966;51.052;13.820;2023-02-26T07:30:02;0.40;99.90
7842;DHT22;3966;51.052;13.820;2023-02-26T07:32:28;0.40;99.90
7842;DHT22;3966;51.052;13.820;2023-02-26T07:34:54;0.40;99.90
7842;DHT22;3966;51.052;13.820;2023-02-26T07:37:20;0.30;99.90
7842;DHT22;3966;51.052;13.820;2023-02-26T07:39:45;0.40;99.90
7842;DHT22;3966;51.052;13.820;2023-02-26T07:42:11;0.40;99.90
7842;DHT22;3966;51.052;13.820;2023-02-26T07:44:37;0.50;99.90
7842;DHT22;3966;51.052;13.820;2023-02-26T07:47:03;0.50;99.90
7842;DHT22;3966;51.052;13.820;2023-02-26T07:49:28;0.40;99.90
7842;DHT22;3966;51.052;13.820;2023-02-26T07:51:54;0.50;99.90
7842;DHT22;3966;51.052;13.820;2023-02-26T07:54:20;0.50;99.90
7842;DHT22;3966;51.052;13.820;2023-02-26T07:56:45;0.40;99.90
7842;DHT22;3966;51.052;13.820;2023-02-26T07:59:11;0.40;99.90
7842;DHT22;3966;51.052;13.820;2023-02-26T08:01:37;0.50;99.90
7842;DHT22;3966;51.052;13.820;2023-02-26T08:04:03;0.50;99.90
7842;DHT22;3966;51.052;13.820;2023-02-26T08:06:29;0.60;99.90
7842;DHT22;3966;51.052;13.820;2023-02-26T08:08:55;0.60;99.90
7842;DHT22;3966;51.052;13.820;2023-02-26T08:11:20;0.60;99.90
7842;DHT22;3966;51.052;13.820;2023-02-26T08:13:46;0.60;99.90
7842;DHT22;3966;51.052;13.820;2023-02-26T08:16:12;0.70;99.90
7842;DHT22;3966;51.052;13.820;2023-02-26T08:18:38;0.70;99.90
7842;DHT22;3966;51.052;13.820;2023-02-26T08:21:04;0.60;99.90
7842;DHT22;3966;51.052;13.820;2023-02-26T08:23:33;0.60;99.90
7842;DHT22;3966;51.052;13.820;2023-02-26T08:26:04;0.70;99.90
7842;DHT22;3966;51.052;13.820;2023-02-26T08:28:29;0.70;99.90
7842;DHT22;3966;51.052;13.820;2023-02-26T08:30:55;0.70;99.90
7842;DHT22;3966;51.052;13.820;2023-02-26T08:33:21;0.60;99.90
7842;DHT22;3966;51.052;13.820;2023-02-26T08:35:48;0.50;99.90
7842;DHT22;3966;51.052;13.820;2023-02-26T08:38:13;0.60;99.90
7842;DHT22;3966;51.052;13.820;2023-02-26T08:40:42;0.70;99.90
7842;DHT22;3966;51.052;13.820;2023-02-26T08:43:07;0.70;99.90
7842;DHT22;3966;51.052;13.820;2023-02-26T08:45:33;0.50;99.90
7842;DHT22;3966;51.052;13.820;2023-02-26T08:47:59;0.40;99.90
7842;DHT22;3966;51.052;13.820;2023-02-26T08:50:25;0.40;99.90
7842;DHT22;3966;51.052;13.820;2023-02-26T08:52:51;0.60;99.90
7842;DHT22;3966;51.052;13.820;2023-02-26T08:55:17;0.60;99.90
7842;DHT22;3966;51.052;13.820;2023-02-26T08:57:42;0.60;99.90
7842;DHT22;3966;51.052;13.820;2023-02-26T09:00:08;0.60;99.90
7842;DHT22;3966;51.052;13.820;2023-02-26T09:02:37;0.60;99.90
7842;DHT22;3966;51.052;13.820;2023-02-26T09:05:04;0.60;99.90
7842;DHT22;3966;51.052;13.820;2023-02-26T09:07:30;0.70;99.90
7842;DHT22;3966;51.052;13.820;2023-02-26T09:09:56;0.60;99.90
7842;DHT22;3966;51.052;13.820;2023-02-26T09:12:21;0.70;99.90
7842;DHT22;3966;51.052;13.820;2023-02-26T09:14:47;0.70;99.90
7842;DHT22;3966;51.052;13.820;2023-02-26T09:17:13;0.70;99.90
7842;DHT22;3966;51.052;13.820;2023-02-26T09:19:38;0.80;99.90
7842;DHT22;3966;51.052;13.820;2023-02-26T09:22:04;0.90;99.90
7842;DHT22;3966;51.052;13.820;2023-02-26T09:24:30;0.90;99.90
7842;DHT22;3966;51.052;13.820;2023-02-26T09:26:56;1.10;99.90
7842;DHT22;3966;51.052;13.820;2023-02-26T09:29:21;1.10;99.90
7842;DHT22;3966;51.052;13.820;2023-02-26T09:31:47;1.10;99.90
7842;DHT22;3966;51.052;13.820;2023-02-26T09:34:13;1.10;99.90
7842;DHT22;3966;51.052;13.820;2023-02-26T09:36:39;1.20;99.90
7842;DHT22;3966;51.052;13.820;2023-02-26T09:39:05;1.20;99.90
7842;DHT22;3966;51.052;13.820;2023-02-26T09:41:37;1.20;99.90
7842;DHT22;3966;51.052;13.820;2023-02-26T09:49:20;1.30;99.90
7842;DHT22;3966;51.052;13.820;2023-02-26T09:51:57;1.30;99.90
7842;DHT22;3966;51.052;13.820;2023-02-26T09:54:29;1.30;99.90
7842;DHT22;3966;51.052;13.820;2023-02-26T09:56:58;1.50;99.90
7842;DHT22;3966;51.052;13.820;2023-02-26T09:59:29;1.50;99.90
7842;DHT22;3966;51.052;13.820;2023-02-26T10:07:57;1.50;99.90
7842;DHT22;3966;51.052;13.820;2023-02-26T10:12:58;1.60;99.90
7842;DHT22;3966;51.052;13.820;2023-02-26T10:15:39;1.60;99.90
7842;DHT22;3966;51.052;13.820;2023-02-26T10:18:15;1.60;99.90
7842;DHT22;3966;51.052;13.820;2023-02-26T10:20:55;1.70;99.90
7842;DHT22;3966;51.052;13.820;2023-02-26T10:26:13;1.70;99.90
7842;DHT22;3966;51.052;13.820;2023-02-26T10:31:40;1.50;99.90
7842;DHT22;3966;51.052;13.820;2023-02-26T10:35:01;1.50;99.90
7842;DHT22;3966;51.052;13.820;2023-02-26T10:40:17;1.70;99.90
7842;DHT22;3966;51.052;13.820;2023-02-26T10:42:54;1.70;99.90
7842;DHT22;3966;51.052;13.820;2023-02-26T10:48:26;1.70;99.90
7842;DHT22;3966;51.052;13.820;2023-02-26T10:50:59;1.90;99.90
7842;DHT22;3966;51.052;13.820;2023-02-26T10:53:27;2.00;99.90
7842;DHT22;3966;51.052;13.820;2023-02-26T10:58:34;2.00;99.90
7842;DHT22;3966;51.052;13.820;2023-02-26T11:00:59;2.10;99.90
7842;DHT22;3966;51.052;13.820;2023-02-26T11:03:35;2.20;99.90
7842;DHT22;3966;51.052;13.820;2023-02-26T11:06:03;2.30;99.90
7842;DHT22;3966;51.052;13.820;2023-02-26T11:08:43;2.50;99.90
7842;DHT22;3966;51.052;13.820;2023-02-26T11:11:10;2.60;99.90
7842;DHT22;3966;51.052;13.820;2023-02-26T11:13:56;2.60;99.90
7842;DHT22;3966;51.052;13.820;2023-02-26T11:16:21;2.90;99.90
7842;DHT22;3966;51.052;13.820;2023-02-26T11:18:52;2.80;99.90
7842;DHT22;3966;51.052;13.820;2023-02-26T11:21:21;2.30;99.90
7842;DHT22;3966;51.052;13.820;2023-02-26T11:23:51;2.10;99.90
7842;DHT22;3966;51.052;13.820;2023-02-26T11:26:25;2.00;99.90
7842;DHT22;3966;51.052;13.820;2023-02-26T11:28:54;2.00;99.90
7842;DHT22;3966;51.052;13.820;2023-02-26T11:31:22;1.90;99.90
7842;DHT22;3966;51.052;13.820;2023-02-26T11:36:18;2.20;99.90
7842;DHT22;3966;51.052;13.820;2023-02-26T11:38:52;2.20;99.90
7842;DHT22;3966;51.052;13.820;2023-02-26T11:41:22;2.20;99.90
7842;DHT22;3966;51.052;13.820;2023-02-26T11:44:03;2.30;99.90
7842;DHT22;3966;51.052;13.820;2023-02-26T11:46:30;2.30;99.90
7842;DHT22;3966;51.052;13.820;2023-02-26T11:48:59;2.30;99.90
7842;DHT22;3966;51.052;13.820;2023-02-26T11:51:27;2.30;99.90
7842;DHT22;3966;51.052;13.820;2023-02-26T11:53:58;2.30;99.90
7842;DHT22;3966;51.052;13.820;2023-02-26T11:56:36;2.20;99.90
7842;DHT22;3966;51.052;13.820;2023-02-26T11:59:17;2.30;99.90
7842;DHT22;3966;51.052;13.820;2023-02-26T12:01:43;2.30;99.90
7842;DHT22;3966;51.052;13.820;2023-02-26T12:04:14;2.20;99.90
7842;DHT22;3966;51.052;13.820;2023-02-26T12:06:41;2.10;99.90
7842;DHT22;3966;51.052;13.820;2023-02-26T12:09:12;1.90;99.90
7842;DHT22;3966;51.052;13.820;2023-02-26T12:11:58;2.20;99.90
7842;DHT22;3966;51.052;13.820;2023-02-26T12:20:46;2.70;99.90
7842;DHT22;3966;51.052;13.820;2023-02-26T12:23:20;2.70;99.90
7842;DHT22;3966;51.052;13.820;2023-02-26T12:26:12;2.90;99.90
7842;DHT22;3966;51.052;13.820;2023-02-26T12:51:53;2.60;99.90
7842;DHT22;3966;51.052;13.820;2023-02-26T12:56:32;2.40;99.90
7842;DHT22;3966;51.052;13.820;2023-02-26T12:59:38;2.30;99.90
7842;DHT22;3966;51.052;13.820;2023-02-26T13:07:59;2.40;99.90
7842;DHT22;3966;51.052;13.820;2023-02-26T13:19:13;2.50;99.90
7842;DHT22;3966;51.052;13.820;2023-02-26T13:21:45;2.40;99.90
7842;DHT22;3966;51.052;13.820;2023-02-26T13:24:26;2.40;99.90
7842;DHT22;3966;51.052;13.820;2023-02-26T13:26:53;2.30;99.90
7842;DHT22;3966;51.052;13.820;2023-02-26T13:29:35;2.40;99.90
7842;DHT22;3966;51.052;13.820;2023-02-26T13:34:43;2.40;99.90
7842;DHT22;3966;51.052;13.820;2023-02-26T13:37:26;2.40;99.90
7842;DHT22;3966;51.052;13.820;2023-02-26T14:07:04;1.80;99.90
7842;DHT22;3966;51.052;13.820;2023-02-26T14:09:43;1.80;99.90
7842;DHT22;3966;51.052;13.820;2023-02-26T14:17:35;1.70;99.90
7842;DHT22;3966;51.052;13.820;2023-02-26T14:31:19;2.60;99.90
7842;DHT22;3966;51.052;13.820;2023-02-26T14:36:55;2.70;99.90
7842;DHT22;3966;51.052;13.820;2023-02-26T14:39:28;2.60;99.90
7842;DHT22;3966;51.052;13.820;2023-02-26T14:41:58;3.00;99.90
7842;DHT22;3966;51.052;13.820;2023-02-26T14:44:28;3.60;99.90
7842;DHT22;3966;51.052;13.820;2023-02-26T14:46:56;4.00;99.90
7842;DHT22;3966;51.052;13.820;2023-02-26T14:49:35;3.80;99.90
7842;DHT22;3966;51.052;13.820;2023-02-26T14:55:22;3.50;99.90
7842;DHT22;3966;51.052;13.820;2023-02-26T14:58:54;3.20;99.90
7842;DHT22;3966;51.052;13.820;2023-02-26T15:01:15;3.00;99.90
7842;DHT22;3966;51.052;13.820;2023-02-26T15:25:27;0.80;99.90
7842;DHT22;3966;51.052;13.820;2023-02-26T15:27:54;0.80;99.90
7842;DHT22;3966;51.052;13.820;2023-02-26T15:30:21;0.90;99.90
7842;DHT22;3966;51.052;13.820;2023-02-26T15:32:47;1.00;99.90
7842;DHT22;3966;51.052;13.820;2023-02-26T15:35:20;1.00;99.90
7842;DHT22;3966;51.052;13.820;2023-02-26T15:37:51;1.10;99.90
7842;DHT22;3966;51.052;13.820;2023-02-26T15:40:18;1.20;99.90
7842;DHT22;3966;51.052;13.820;2023-02-26T15:42:44;1.20;99.90
7842;DHT22;3966;51.052;13.820;2023-02-26T15:45:32;1.30;99.90
7842;DHT22;3966;51.052;13.820;2023-02-26T15:48:03;1.30;99.90
7842;DHT22;3966;51.052;13.820;2023-02-26T15:50:32;1.30;99.90
7842;DHT22;3966;51.052;13.820;2023-02-26T15:53:01;1.30;99.90
7842;DHT22;3966;51.052;13.820;2023-02-26T15:55:31;1.30;99.90
7842;DHT22;3966;51.052;13.820;2023-02-26T15:57:58;1.20;99.90
7842;DHT22;3966;51.052;13.820;2023-02-26T16:00:24;1.30;99.90
7842;DHT22;3966;51.052;13.820;2023-02-26T16:02:52;1.20;99.90
7842;DHT22;3966;51.052;13.820;2023-02-26T16:05:19;1.20;99.90
7842;DHT22;3966;51.052;13.820;2023-02-26T16:07:45;1.10;99.90
7842;DHT22;3966;51.052;13.820;2023-02-26T16:10:27;1.20;99.90
7842;DHT22;3966;51.052;13.820;2023-02-26T16:12:54;1.20;99.90
7842;DHT22;3966;51.052;13.820;2023-02-26T16:15:40;1.20;99.90
7842;DHT22;3966;51.052;13.820;2023-02-26T16:18:09;1.10;99.90
7842;DHT22;3966;51.052;13.820;2023-02-26T16:20:43;1.10;99.90
7842;DHT22;3966;51.052;13.820;2023-02-26T16:23:18;1.00;99.90
7842;DHT22;3966;51.052;13.820;2023-02-26T16:25:55;1.00;99.90
7842;DHT22;3966;51.052;13.820;2023-02-26T16:28:28;1.00;99.90
7842;DHT22;3966;51.052;13.820;2023-02-26T16:30:56;0.90;99.90
7842;DHT22;3966;51.052;13.820;2023-02-26T16:33:24;0.90;99.90
7842;DHT22;3966;51.052;13.820;2023-02-26T16:36:02;1.00;99.90
7842;DHT22;3966;51.052;13.820;2023-02-26T16:38:32;1.00;99.90
7842;DHT22;3966;51.052;13.820;2023-02-26T16:41:08;1.00;99.90
7842;DHT22;3966;51.052;13.820;2023-02-26T16:46:12;1.00;99.90
7842;DHT22;3966;51.052;13.820;2023-02-26T16:49:14;1.10;99.90
7842;DHT22;3966;51.052;13.820;2023-02-26T16:51:34;1.10;99.90
7842;DHT22;3966;51.052;13.820;2023-02-26T16:54:05;1.10;99.90
7842;DHT22;3966;51.052;13.820;2023-02-26T16:56:41;1.10;99.90
7842;DHT22;3966;51.052;13.820;2023-02-26T16:59:19;1.10;99.90
7842;DHT22;3966;51.052;13.820;2023-02-26T17:04:35;1.00;99.90
7842;DHT22;3966;51.052;13.820;2023-02-26T17:07:04;1.00;99.90
7842;DHT22;3966;51.052;13.820;2023-02-26T17:09:40;0.90;99.90
7842;DHT22;3966;51.052;13.820;2023-02-26T17:12:28;1.00;99.90
7842;DHT22;3966;51.052;13.820;2023-02-26T17:14:59;1.00;99.90
7842;DHT22;3966;51.052;13.820;2023-02-26T17:17:25;1.00;99.90
7842;DHT22;3966;51.052;13.820;2023-02-26T17:19:51;1.00;99.90
7842;DHT22;3966;51.052;13.820;2023-02-26T17:22:23;0.90;99.90
7842;DHT22;3966;51.052;13.820;2023-02-26T17:24:50;0.90;99.90
7842;DHT22;3966;51.052;13.820;2023-02-26T17:27:26;0.90;99.90
7842;DHT22;3966;51.052;13.820;2023-02-26T17:29:52;0.80;99.90
7842;DHT22;3966;51.052;13.820;2023-02-26T17:32:23;0.80;99.90
7842;DHT22;3966;51.052;13.820;2023-02-26T17:34:51;0.80;99.90
7842;DHT22;3966;51.052;13.820;2023-02-26T17:37:18;0.80;99.90
7842;DHT22;3966;51.052;13.820;2023-02-26T17:39:44;0.80;99.90
7842;DHT22;3966;51.052;13.820;2023-02-26T17:42:13;0.80;99.90
7842;DHT22;3966;51.052;13.820;2023-02-26T17:44:39;0.90;99.90
7842;DHT22;3966;51.052;13.820;2023-02-26T17:47:05;0.80;99.90
7842;DHT22;3966;51.052;13.820;2023-02-26T17:49:31;0.80;99.90
7842;DHT22;3966;51.052;13.820;2023-02-26T17:51:57;0.80;99.90
7842;DHT22;3966;51.052;13.820;2023-02-26T17:54:23;0.70;99.90
7842;DHT22;3966;51.052;13.820;2023-02-26T17:56:48;0.70;99.90
7842;DHT22;3966;51.052;13.820;2023-02-26T17:59:14;0.70;99.90
7842;DHT22;3966;51.052;13.820;2023-02-26T18:01:40;0.70;99.90
7842;DHT22;3966;51.052;13.820;2023-02-26T18:04:06;0.60;99.90
7842;DHT22;3966;51.052;13.820;2023-02-26T18:06:34;0.60;99.90
7842;DHT22;3966;51.052;13.820;2023-02-26T18:09:01;0.60;99.90
7842;DHT22;3966;51.052;13.820;2023-02-26T18:11:28;0.60;99.90
7842;DHT22;3966;51.052;13.820;2023-02-26T18:13:54;0.60;99.90
7842;DHT22;3966;51.052;13.820;2023-02-26T18:16:25;0.60;99.90
7842;DHT22;3966;51.052;13.820;2023-02-26T18:18:52;0.50;99.90
7842;DHT22;3966;51.052;13.820;2023-02-26T18:21:18;0.50;99.90
7842;DHT22;3966;51.052;13.820;2023-02-26T18:23:45;0.50;99.90
7842;DHT22;3966;51.052;13.820;2023-02-26T18:26:13;0.50;99.90
7842;DHT22;3966;51.052;13.820;2023-02-26T18:28:40;0.50;99.90
7842;DHT22;3966;51.052;13.820;2023-02-26T18:31:06;0.40;99.90
7842;DHT22;3966;51.052;13.820;2023-02-26T18:33:34;0.50;99.90
7842;DHT22;3966;51.052;13.820;2023-02-26T18:36:02;0.50;99.90
7842;DHT22;3966;51.052;13.820;2023-02-26T18:38:28;0.40;99.90
7842;DHT22;3966;51.052;13.820;2023-02-26T18:40:54;0.40;99.90
7842;DHT22;3966;51.052;13.820;2023-02-26T18:43:21;0.30;99.90
7842;DHT22;3966;51.052;13.820;2023-02-26T18:45:48;0.30;99.90
7842;DHT22;3966;51.052;13.820;2023-02-26T18:48:16;0.30;99.90
7842;DHT22;3966;51.052;13.820;2023-02-26T18:50:43;0.30;99.90
7842;DHT22;3966;51.052;13.820;2023-02-26T18:53:11;0.30;99.90
7842;DHT22;3966;51.052;13.820;2023-02-26T18:55:37;0.20;99.90
7842;DHT22;3966;51.052;13.820;2023-02-26T18:58:03;0.20;99.90
7842;DHT22;3966;51.052;13.820;2023-02-26T19:00:29;0.10;99.90
7842;DHT22;3966;51.052;13.820;2023-02-26T19:02:55;0.10;99.90
7842;DHT22;3966;51.052;13.820;2023-02-26T19:05:21;0.10;99.90
7842;DHT22;3966;51.052;13.820;2023-02-26T19:07:52;0.10;99.90
7842;DHT22;3966;51.052;13.820;2023-02-26T19:10:17;0.10;99.90
7842;DHT22;3966;51.052;13.820;2023-02-26T19:12:43;0.10;99.90
7842;DHT22;3966;51.052;13.820;2023-02-26T19:15:10;0.00;99.90
7842;DHT22;3966;51.052;13.820;2023-02-26T19:17:37;0.00;99.90
7842;DHT22;3966;51.052;13.820;2023-02-26T19:20:04;0.00;99.90
7842;DHT22;3966;51.052;13.820;2023-02-26T19:22:30;0.00;99.90
7842;DHT22;3966;51.052;13.820;2023-02-26T19:24:55;0.00;99.90
7842;DHT22;3966;51.052;13.820;2023-02-26T19:27:21;0.10;99.90
7842;DHT22;3966;51.052;13.820;2023-02-26T19:29:47;0.20;99.90
7842;DHT22;3966;51.052;13.820;2023-02-26T19:32:12;0.20;99.90
7842;DHT22;3966;51.052;13.820;2023-02-26T19:34:38;0.20;99.90
7842;DHT22;3966;51.052;13.820;2023-02-26T19:37:04;0.30;99.90
7842;DHT22;3966;51.052;13.820;2023-02-26T19:39:30;0.30;99.90
7842;DHT22;3966;51.052;13.820;2023-02-26T19:41:56;0.30;99.90
7842;DHT22;3966;51.052;13.820;2023-02-26T19:44:24;0.20;99.90
7842;DHT22;3966;51.052;13.820;2023-02-26T19:46:51;0.20;99.90
7842;DHT22;3966;51.052;13.820;2023-02-26T19:49:18;0.20;99.90
7842;DHT22;3966;51.052;13.820;2023-02-26T19:51:44;0.10;99.90